Time;durP1;ratioP1;P1;durP2;ratioP2;P2;SDS_P1;SDS_P2;PMS_P1;PMS_P2;Temp;Humidity;BMP_temperature;BMP_pressure;BME280_temperature;BME280_humidity;BME280_pressure;Samples;Min_cycle;Max_cycle;Signal;HPM_P1;HPM_P2
2023/06/22 00:01:53;;;;;;;32.83;25.20;;;;;;;;;;5091996;28;20113;-77
2023/06/22 00:04:19;;;;;;;35.55;25.70;;;;;;;;;;5094078;28;20048;-74
2023/06/22 00:06:46;;;;;;;30.55;23.73;;;;;;;;;;5093140;28;20051;-74
2023/06/22 00:09:12;;;;;;;34.30;24.13;;;;;;;;;;5092565;28;20040;-74
2023/06/22 00:11:38;;;;;;;34.85;24.40;;;;;;;;;;5076154;28;20118;-74
2023/06/22 00:14:04;;;;;;;33.08;23.73;;;;;;;;;;5093077;28;20040;-74
2023/06/22 00:16:32;;;;;;;32.17;21.75;;;;;;;;;;5093445;28;20515;-77
2023/06/22 00:19:00;;;;;;;33.60;24.83;;;;;;;;;;5093203;28;20097;-78
2023/06/22 00:21:29;;;;;;;33.80;25.63;;;;;;;;;;5092679;28;20147;-78
2023/06/22 00:23:55;;;;;;;28.75;21.35;;;;;;;;;;5093588;28;20138;-74
2023/06/22 00:26:21;;;;;;;31.40;22.88;;;;;;;;;;5093246;28;20402;-74
2023/06/22 00:28:48;;;;;;;30.42;22.95;;;;;;;;;;5092469;28;20028;-74
2023/06/22 00:31:14;;;;;;;30.23;24.20;;;;;;;;;;5092996;28;20040;-74
2023/06/22 00:33:40;;;;;;;34.72;25.33;;;;;;;;;;5092721;28;20123;-73
2023/06/22 00:36:12;;;;;;;33.47;24.95;;;;;;;;;;5093055;28;20051;-78
2023/06/22 00:38:40;;;;;;;34.95;25.45;;;;;;;;;;5093708;28;20052;-74
2023/06/22 00:41:06;;;;;;;35.70;25.13;;;;;;;;;;5093037;28;20089;-77
2023/06/22 00:43:32;;;;;;;34.15;24.33;;;;;;;;;;5092490;28;20089;-77
2023/06/22 00:45:58;;;;;;;35.20;24.90;;;;;;;;;;5092155;28;20051;-73
2023/06/22 00:48:24;;;;;;;36.72;26.77;;;;;;;;;;5076184;28;20040;-73
2023/06/22 00:50:53;;;;;;;35.10;24.20;;;;;;;;;;5092179;28;20492;-78
2023/06/22 00:53:20;;;;;;;29.52;21.10;;;;;;;;;;5092751;28;20036;-78
2023/06/22 00:55:51;;;;;;;33.10;25.27;;;;;;;;;;5092409;28;20040;-73
2023/06/22 00:58:17;;;;;;;35.90;24.98;;;;;;;;;;5092182;28;20040;-74
2023/06/22 01:00:43;;;;;;;33.17;25.33;;;;;;;;;;5091932;28;20043;-73
2023/06/22 01:03:10;;;;;;;33.55;23.40;;;;;;;;;;5092347;28;20048;-73
2023/06/22 01:05:37;;;;;;;28.13;21.33;;;;;;;;;;5091975;28;20070;-73
2023/06/22 01:08:06;;;;;;;29.25;22.40;;;;;;;;;;5092692;28;20072;-73
2023/06/22 01:10:42;;;;;;;21.55;17.13;;;;;;;;;;5091464;28;20032;-73
2023/06/22 01:13:16;;;;;;;20.55;16.38;;;;;;;;;;5080556;28;20035;-73
2023/06/22 01:15:56;;;;;;;19.73;15.45;;;;;;;;;;5092216;28;20466;-73
2023/06/22 01:18:25;;;;;;;23.17;18.30;;;;;;;;;;5092196;28;20047;-73
2023/06/22 01:20:53;;;;;;;30.30;21.05;;;;;;;;;;5091581;28;20091;-73
2023/06/22 01:23:22;;;;;;;30.98;21.67;;;;;;;;;;5075149;28;20145;-77
2023/06/22 01:25:54;;;;;;;29.20;22.08;;;;;;;;;;5090741;28;20076;-77
2023/06/22 01:28:26;;;;;;;30.63;23.33;;;;;;;;;;5092625;28;20081;-77
2023/06/22 01:31:05;;;;;;;27.77;22.20;;;;;;;;;;5082551;28;20036;-77
2023/06/22 01:33:33;;;;;;;29.30;22.70;;;;;;;;;;5092249;28;20550;-77
2023/06/22 01:36:00;;;;;;;30.67;22.13;;;;;;;;;;5091525;28;20044;-78
2023/06/22 01:38:27;;;;;;;26.58;20.52;;;;;;;;;;5091690;28;20040;-73
2023/06/22 01:40:54;;;;;;;28.35;21.70;;;;;;;;;;5091300;28;20050;-73
2023/06/22 01:43:23;;;;;;;27.00;21.45;;;;;;;;;;5091885;28;20408;-73
2023/06/22 01:45:49;;;;;;;27.08;20.08;;;;;;;;;;5091130;28;20044;-78
2023/06/22 01:48:15;;;;;;;26.63;21.17;;;;;;;;;;5092102;28;20473;-78
2023/06/22 01:50:42;;;;;;;24.65;20.75;;;;;;;;;;5091069;28;20117;-78
2023/06/22 01:53:08;;;;;;;24.35;20.88;;;;;;;;;;5091546;28;20085;-78
2023/06/22 01:55:34;;;;;;;24.95;21.10;;;;;;;;;;5091760;28;20047;-78
2023/06/22 01:58:00;;;;;;;14.20;11.93;;;;;;;;;;5090983;28;20040;-78
2023/06/22 02:00:27;;;;;;;37.47;22.02;;;;;;;;;;5060849;28;20479;-78
2023/06/22 02:02:55;;;;;;;31.02;20.33;;;;;;;;;;5088539;28;20040;-78
2023/06/22 02:05:24;;;;;;;28.92;18.17;;;;;;;;;;5089984;28;20040;-78
2023/06/22 02:07:55;;;;;;;98.82;24.10;;;;;;;;;;5090876;28;20051;-78
2023/06/22 02:10:22;;;;;;;222.13;27.80;;;;;;;;;;5091200;28;20036;-78
2023/06/22 02:12:49;;;;;;;84.25;26.10;;;;;;;;;;5090368;28;20042;-78
2023/06/22 02:15:15;;;;;;;206.85;25.63;;;;;;;;;;5091058;28;20043;-78
2023/06/22 02:17:44;;;;;;;231.32;23.77;;;;;;;;;;5090623;28;20058;-78
2023/06/22 02:20:14;;;;;;;128.65;24.17;;;;;;;;;;5090425;28;20111;-78
2023/06/22 02:22:40;;;;;;;128.68;24.92;;;;;;;;;;5090693;28;20044;-78
2023/06/22 02:25:06;;;;;;;65.55;24.63;;;;;;;;;;5073539;28;20032;-78
2023/06/22 02:27:32;;;;;;;112.97;26.48;;;;;;;;;;5090047;28;20043;-78
2023/06/22 02:29:58;;;;;;;25.30;18.83;;;;;;;;;;5090870;28;20040;-78
2023/06/22 02:32:24;;;;;;;55.25;25.38;;;;;;;;;;5090433;28;20036;-78
2023/06/22 02:34:51;;;;;;;90.18;25.05;;;;;;;;;;5090766;28;20032;-73
2023/06/22 02:37:17;;;;;;;95.43;24.65;;;;;;;;;;5090983;28;20127;-73
2023/06/22 02:39:44;;;;;;;47.10;23.10;;;;;;;;;;5090167;28;20035;-78
2023/06/22 02:42:13;;;;;;;31.63;23.10;;;;;;;;;;5091963;28;20066;-78
2023/06/22 02:44:39;;;;;;;27.38;24.00;;;;;;;;;;5073843;28;20036;-78
2023/06/22 02:47:05;;;;;;;31.35;25.05;;;;;;;;;;5090619;28;20485;-72
2023/06/22 02:49:31;;;;;;;26.65;23.48;;;;;;;;;;5090833;28;20066;-72
2023/06/22 02:51:58;;;;;;;21.83;19.58;;;;;;;;;;5090257;28;20148;-73
2023/06/22 02:54:24;;;;;;;25.88;23.15;;;;;;;;;;5091615;28;20032;-72
2023/06/22 02:56:50;;;;;;;54.40;27.35;;;;;;;;;;5090063;28;20044;-72
2023/06/22 02:59:16;;;;;;;34.03;25.30;;;;;;;;;;5091027;28;20459;-72
2023/06/22 03:01:42;;;;;;;71.18;25.63;;;;;;;;;;5091852;28;20119;-72
2023/06/22 03:04:09;;;;;;;139.65;28.50;;;;;;;;;;5089746;28;20485;-79
2023/06/22 03:06:35;;;;;;;24.17;17.50;;;;;;;;;;5073877;28;20396;-79
2023/06/22 03:09:03;;;;;;;22.58;20.27;;;;;;;;;;5090223;28;20036;-79
2023/06/22 03:11:30;;;;;;;26.55;22.17;;;;;;;;;;5090024;28;20048;-78
2023/06/22 03:13:56;;;;;;;25.48;20.13;;;;;;;;;;5089757;28;20045;-78
2023/06/22 03:16:22;;;;;;;33.83;21.80;;;;;;;;;;5090316;28;20075;-79
2023/06/22 03:18:49;;;;;;;39.40;24.33;;;;;;;;;;5089971;28;20125;-78
2023/06/22 03:21:16;;;;;;;19.65;17.30;;;;;;;;;;5090929;28;20044;-78
2023/06/22 03:23:45;;;;;;;67.78;23.70;;;;;;;;;;5090224;28;20044;-78
2023/06/22 03:26:11;;;;;;;121.93;25.50;;;;;;;;;;5089842;28;20044;-73
2023/06/22 03:28:38;;;;;;;59.45;22.33;;;;;;;;;;5090181;28;20050;-72
2023/06/22 03:31:06;;;;;;;114.25;25.10;;;;;;;;;;5090280;28;20140;-74
2023/06/22 03:33:32;;;;;;;50.33;23.30;;;;;;;;;;5090312;28;20040;-72
2023/06/22 03:35:58;;;;;;;35.72;17.92;;;;;;;;;;5092125;28;20504;-78
2023/06/22 03:38:24;;;;;;;57.88;24.70;;;;;;;;;;5077311;28;20066;-73
2023/06/22 03:40:50;;;;;;;49.05;23.63;;;;;;;;;;5094149;28;20040;-73
2023/06/22 03:43:16;;;;;;;27.00;17.25;;;;;;;;;;5093558;28;20078;-73
2023/06/22 03:45:45;;;;;;;74.72;25.70;;;;;;;;;;5094038;28;20097;-72
2023/06/22 03:48:11;;;;;;;42.30;23.95;;;;;;;;;;5093772;28;20122;-73
2023/06/22 03:50:37;;;;;;;52.50;22.15;;;;;;;;;;5094016;28;20036;-78
2023/06/22 03:53:03;;;;;;;52.25;23.60;;;;;;;;;;5076895;28;20040;-78
2023/06/22 03:55:30;;;;;;;99.28;26.90;;;;;;;;;;5093515;28;20093;-78
2023/06/22 03:57:57;;;;;;;62.17;21.60;;;;;;;;;;5093578;28;20032;-78
2023/06/22 04:00:26;;;;;;;55.38;22.60;;;;;;;;;;5093800;28;20044;-78
2023/06/22 04:02:52;;;;;;;97.18;26.58;;;;;;;;;;5073997;28;20044;-79
2023/06/22 04:05:19;;;;;;;45.97;21.88;;;;;;;;;;5076215;28;20511;-78
2023/06/22 04:07:45;;;;;;;30.85;22.70;;;;;;;;;;5091931;28;20040;-78
2023/06/22 04:10:11;;;;;;;31.02;21.88;;;;;;;;;;5093282;28;20416;-78
2023/06/22 04:12:37;;;;;;;60.95;22.42;;;;;;;;;;5064592;28;20032;-78
2023/06/22 04:15:03;;;;;;;120.68;25.55;;;;;;;;;;5091539;28;20036;-78
2023/06/22 04:17:29;;;;;;;131.32;26.90;;;;;;;;;;5093219;28;20047;-78
2023/06/22 04:19:55;;;;;;;92.47;27.63;;;;;;;;;;5092878;28;20545;-78
2023/06/22 04:22:21;;;;;;;42.40;18.45;;;;;;;;;;5093509;28;20046;-78
2023/06/22 04:24:47;;;;;;;58.20;21.50;;;;;;;;;;5093043;28;20040;-72
2023/06/22 04:27:13;;;;;;;87.90;26.48;;;;;;;;;;5076030;28;20116;-73
2023/06/22 04:29:48;;;;;;;80.10;25.42;;;;;;;;;;5082241;28;20044;-78
2023/06/22 04:32:15;;;;;;;106.85;25.38;;;;;;;;;;5077397;28;20497;-78
2023/06/22 04:34:41;;;;;;;64.35;18.08;;;;;;;;;;5093310;28;20032;-78
2023/06/22 04:37:07;;;;;;;70.15;20.67;;;;;;;;;;5092758;28;20040;-78
2023/06/22 04:39:33;;;;;;;82.10;23.83;;;;;;;;;;5092796;28;20115;-78
2023/06/22 04:42:00;;;;;;;75.13;26.95;;;;;;;;;;5092795;28;20169;-79
2023/06/22 04:44:26;;;;;;;78.25;26.92;;;;;;;;;;5092262;28;20040;-78
2023/06/22 04:47:00;;;;;;;31.27;18.75;;;;;;;;;;5092217;28;20032;-78
2023/06/22 04:49:32;;;;;;;45.85;23.83;;;;;;;;;;5092593;28;20043;-78
2023/06/22 04:51:59;;;;;;;52.83;23.90;;;;;;;;;;5076302;28;20039;-79
2023/06/22 04:54:25;;;;;;;56.40;24.38;;;;;;;;;;5092555;28;20043;-79
2023/06/22 04:56:57;;;;;;;25.63;17.67;;;;;;;;;;5092389;28;20047;-78
2023/06/22 04:59:30;;;;;;;35.88;18.67;;;;;;;;;;5074910;28;20126;-78
2023/06/22 05:01:56;;;;;;;24.60;21.88;;;;;;;;;;5092504;28;20504;-78
2023/06/22 05:04:27;;;;;;;29.27;22.35;;;;;;;;;;5091873;28;20040;-78
2023/06/22 05:06:53;;;;;;;28.10;20.50;;;;;;;;;;5091952;28;20489;-78
2023/06/22 05:09:19;;;;;;;25.83;21.05;;;;;;;;;;5091428;28;20044;-79
2023/06/22 05:11:45;;;;;;;32.53;22.75;;;;;;;;;;5092023;28;20072;-79
2023/06/22 05:14:12;;;;;;;23.13;20.13;;;;;;;;;;5091881;28;20051;-79
2023/06/22 05:16:38;;;;;;;21.90;18.35;;;;;;;;;;5092159;28;20047;-78
2023/06/22 05:19:04;;;;;;;24.23;20.65;;;;;;;;;;5091365;28;20036;-73
2023/06/22 05:21:31;;;;;;;24.02;21.05;;;;;;;;;;5092168;28;20492;-73
2023/06/22 05:24:00;;;;;;;22.52;19.08;;;;;;;;;;5093444;28;20043;-73
2023/06/22 05:26:26;;;;;;;22.38;19.98;;;;;;;;;;5091549;28;20051;-73
2023/06/22 05:28:53;;;;;;;21.60;17.98;;;;;;;;;;5074489;28;20047;-73
2023/06/22 05:31:19;;;;;;;23.27;20.75;;;;;;;;;;5091508;28;20051;-73
2023/06/22 05:33:46;;;;;;;21.20;18.02;;;;;;;;;;5092372;28;20469;-73
2023/06/22 05:36:21;;;;;;;22.60;19.02;;;;;;;;;;5091925;28;20381;-73
2023/06/22 05:38:47;;;;;;;23.52;20.50;;;;;;;;;;5075761;28;20067;-73
2023/06/22 05:41:13;;;;;;;23.33;19.55;;;;;;;;;;5093142;28;20117;-73
2023/06/22 05:43:40;;;;;;;24.45;19.27;;;;;;;;;;5091366;28;20036;-73
2023/06/22 05:46:06;;;;;;;23.98;20.27;;;;;;;;;;5091694;28;20127;-74
2023/06/22 05:48:32;;;;;;;18.67;15.30;;;;;;;;;;5092417;28;20503;-73
2023/06/22 05:50:58;;;;;;;19.95;15.05;;;;;;;;;;5091984;28;20369;-74
2023/06/22 05:53:24;;;;;;;23.23;18.63;;;;;;;;;;5091711;28;20404;-75
2023/06/22 05:55:50;;;;;;;18.35;15.80;;;;;;;;;;5090908;28;20054;-75
2023/06/22 05:58:16;;;;;;;21.73;18.23;;;;;;;;;;5090154;28;20039;-75
2023/06/22 06:00:43;;;;;;;20.73;17.63;;;;;;;;;;5090405;28;20067;-75
2023/06/22 06:03:09;;;;;;;20.85;16.83;;;;;;;;;;5074320;28;20059;-75
2023/06/22 06:05:36;;;;;;;23.40;17.70;;;;;;;;;;5091047;28;20043;-75
2023/06/22 06:08:04;;;;;;;20.02;16.20;;;;;;;;;;5069406;28;20127;-75
2023/06/22 06:10:30;;;;;;;18.65;15.48;;;;;;;;;;5090925;28;20047;-74
2023/06/22 06:12:57;;;;;;;19.45;15.60;;;;;;;;;;5091265;28;20036;-75
2023/06/22 06:15:23;;;;;;;17.00;14.75;;;;;;;;;;5090684;28;20048;-74
2023/06/22 06:17:50;;;;;;;21.67;16.13;;;;;;;;;;5065511;28;20046;-75
2023/06/22 06:20:16;;;;;;;21.65;16.20;;;;;;;;;;5090624;28;20556;-75
2023/06/22 06:22:42;;;;;;;18.25;14.40;;;;;;;;;;5091436;28;20032;-75
2023/06/22 06:25:09;;;;;;;18.48;14.55;;;;;;;;;;5074241;28;20043;-75
2023/06/22 06:27:35;;;;;;;18.15;14.85;;;;;;;;;;5090609;28;20042;-75
2023/06/22 06:30:03;;;;;;;20.38;17.05;;;;;;;;;;5083885;28;20070;-76
2023/06/22 06:32:29;;;;;;;21.55;16.80;;;;;;;;;;5088841;28;20087;-75
2023/06/22 06:34:55;;;;;;;19.23;15.75;;;;;;;;;;5091026;28;20036;-75
2023/06/22 06:37:21;;;;;;;19.40;16.02;;;;;;;;;;5090000;28;20123;-74
2023/06/22 06:39:47;;;;;;;18.17;14.27;;;;;;;;;;5090787;28;20118;-75
2023/06/22 06:42:13;;;;;;;18.15;15.38;;;;;;;;;;5088494;28;20050;-74
2023/06/22 06:44:39;;;;;;;17.20;14.65;;;;;;;;;;5089818;28;20044;-75
2023/06/22 06:47:05;;;;;;;17.73;13.88;;;;;;;;;;5073531;28;20044;-76
2023/06/22 06:49:32;;;;;;;15.48;12.45;;;;;;;;;;5090302;28;20093;-75
2023/06/22 06:51:58;;;;;;;17.00;13.00;;;;;;;;;;5090344;28;20040;-75
2023/06/22 06:54:24;;;;;;;15.88;12.63;;;;;;;;;;5072810;28;20044;-75
2023/06/22 06:56:50;;;;;;;14.23;10.02;;;;;;;;;;5073697;28;20036;-75
2023/06/22 06:59:16;;;;;;;15.02;9.88;;;;;;;;;;5091529;28;20028;-75
2023/06/22 07:01:44;;;;;;;13.55;10.68;;;;;;;;;;5091818;28;20091;-74
2023/06/22 07:04:10;;;;;;;14.93;11.05;;;;;;;;;;5090703;28;20048;-75
2023/06/22 07:06:37;;;;;;;10.45;8.82;;;;;;;;;;5089716;28;20456;-76
2023/06/22 07:09:03;;;;;;;15.93;10.52;;;;;;;;;;5088488;28;20047;-75
2023/06/22 07:11:29;;;;;;;12.95;9.48;;;;;;;;;;5093229;28;20036;-75
2023/06/22 07:13:55;;;;;;;12.98;9.57;;;;;;;;;;5094008;28;20396;-75
2023/06/22 07:16:22;;;;;;;11.15;8.93;;;;;;;;;;5092207;28;20036;-75
2023/06/22 07:18:48;;;;;;;9.90;8.43;;;;;;;;;;5094665;28;20047;-76
2023/06/22 07:21:15;;;;;;;11.57;8.93;;;;;;;;;;5091812;28;20466;-76
2023/06/22 07:23:41;;;;;;;10.20;8.07;;;;;;;;;;5093054;28;20404;-77
2023/06/22 07:26:08;;;;;;;10.68;7.63;;;;;;;;;;5072361;28;20047;-77
2023/06/22 07:28:37;;;;;;;11.50;8.35;;;;;;;;;;5093578;28;20051;-79
2023/06/22 07:31:04;;;;;;;11.15;8.70;;;;;;;;;;5081973;28;20036;-73
2023/06/22 07:33:30;;;;;;;11.55;8.13;;;;;;;;;;5093728;28;20043;-69
2023/06/22 07:35:56;;;;;;;10.25;8.85;;;;;;;;;;5093770;28;20044;-71
2023/06/22 07:38:22;;;;;;;10.68;8.15;;;;;;;;;;5094743;28;20518;-70
2023/06/22 07:40:48;;;;;;;10.52;8.45;;;;;;;;;;5095392;28;20036;-72
2023/06/22 07:43:14;;;;;;;11.60;9.18;;;;;;;;;;5094342;28;20434;-71
2023/06/22 07:45:41;;;;;;;10.85;8.05;;;;;;;;;;5093665;28;20047;-71
2023/06/22 07:48:08;;;;;;;9.93;7.30;;;;;;;;;;5095511;28;20044;-71
2023/06/22 07:50:34;;;;;;;9.45;8.15;;;;;;;;;;5092652;28;20441;-70
2023/06/22 07:53:00;;;;;;;11.50;8.30;;;;;;;;;;5093893;28;20039;-70
2023/06/22 07:55:26;;;;;;;10.15;8.85;;;;;;;;;;5094796;28;20114;-70
2023/06/22 07:57:52;;;;;;;12.15;9.15;;;;;;;;;;5095431;28;20036;-70
2023/06/22 08:00:18;;;;;;;11.80;8.50;;;;;;;;;;5093469;28;20048;-70
2023/06/22 08:02:45;;;;;;;11.95;8.73;;;;;;;;;;5092014;28;20048;-70
2023/06/22 08:05:12;;;;;;;13.10;9.07;;;;;;;;;;5093571;28;20384;-75
2023/06/22 08:07:38;;;;;;;11.73;9.13;;;;;;;;;;5090761;28;20051;-84
2023/06/22 08:10:10;;;;;;;10.85;8.35;;;;;;;;;;5092331;28;20042;-86
2023/06/22 08:12:36;;;;;;;12.93;8.77;;;;;;;;;;5087177;28;20051;-85
2023/06/22 08:15:03;;;;;;;10.85;8.38;;;;;;;;;;5077088;28;20090;-86
2023/06/22 08:17:29;;;;;;;10.32;7.82;;;;;;;;;;5060635;28;20449;-89
2023/06/22 08:19:55;;;;;;;11.90;9.50;;;;;;;;;;5066876;28;20044;-84
2023/06/22 08:22:21;;;;;;;13.80;9.80;;;;;;;;;;5086622;28;20040;-85
2023/06/22 08:24:48;;;;;;;13.02;8.52;;;;;;;;;;5087785;28;20054;-85
2023/06/22 08:27:15;;;;;;;10.60;8.60;;;;;;;;;;5091552;28;20040;-88
2023/06/22 08:29:47;;;;;;;10.43;7.78;;;;;;;;;;5076330;28;20043;-81
2023/06/22 08:32:13;;;;;;;13.02;8.70;;;;;;;;;;5093824;28;20389;-79
2023/06/22 08:34:42;;;;;;;10.60;7.18;;;;;;;;;;5092215;28;20040;-84
2023/06/22 08:37:11;;;;;;;10.27;7.78;;;;;;;;;;5094830;28;20051;-86
2023/06/22 08:39:39;;;;;;;11.65;8.07;;;;;;;;;;5091267;28;20116;-89
2023/06/22 08:42:05;;;;;;;14.18;8.30;;;;;;;;;;5089408;28;20052;-88
2023/06/22 08:44:31;;;;;;;9.55;7.60;;;;;;;;;;5091520;28;20043;-89
2023/06/22 08:46:57;;;;;;;11.38;8.18;;;;;;;;;;5092240;28;20044;-84
2023/06/22 08:49:23;;;;;;;11.68;8.45;;;;;;;;;;5093660;28;20036;-87
2023/06/22 08:51:52;;;;;;;12.85;8.07;;;;;;;;;;5093026;28;21227;-88
2023/06/22 08:54:18;;;;;;;11.25;8.63;;;;;;;;;;5076255;28;20040;-89
2023/06/22 08:56:44;;;;;;;16.02;7.65;;;;;;;;;;5091157;28;20048;-82
2023/06/22 08:59:10;;;;;;;9.90;7.03;;;;;;;;;;5093731;28;20040;-88
2023/06/22 09:01:36;;;;;;;11.63;8.00;;;;;;;;;;5092019;28;20051;-80
2023/06/22 09:04:03;;;;;;;8.00;6.18;;;;;;;;;;5076044;28;20036;-74
2023/06/22 09:06:31;;;;;;;10.18;7.43;;;;;;;;;;5074750;28;20531;-74
2023/06/22 09:08:59;;;;;;;9.82;6.57;;;;;;;;;;5090863;28;20036;-73
2023/06/22 09:11:25;;;;;;;8.45;6.47;;;;;;;;;;5090056;28;20076;-76
2023/06/22 09:13:53;;;;;;;9.15;6.35;;;;;;;;;;5072405;28;20082;-74
2023/06/22 09:16:19;;;;;;;11.60;7.28;;;;;;;;;;5074644;28;20044;-73
2023/06/22 09:18:48;;;;;;;9.55;6.32;;;;;;;;;;5090769;28;20092;-75
2023/06/22 09:21:15;;;;;;;8.80;6.35;;;;;;;;;;5092288;28;20055;-74
2023/06/22 09:23:41;;;;;;;9.00;5.60;;;;;;;;;;5092153;28;20066;-87
2023/06/22 09:26:07;;;;;;;9.82;6.53;;;;;;;;;;5092294;28;20507;-75
2023/06/22 09:28:33;;;;;;;9.10;6.53;;;;;;;;;;5091159;28;20060;-73
2023/06/22 09:30:59;;;;;;;9.13;6.13;;;;;;;;;;5091472;28;20032;-71
2023/06/22 09:33:26;;;;;;;9.63;6.95;;;;;;;;;;5092009;28;20032;-71
2023/06/22 09:35:52;;;;;;;8.57;5.80;;;;;;;;;;5090708;28;20032;-71
2023/06/22 09:38:18;;;;;;;10.55;5.72;;;;;;;;;;5091313;28;20032;-71
2023/06/22 09:40:44;;;;;;;8.75;5.93;;;;;;;;;;5091010;28;20040;-73
2023/06/22 09:43:12;;;;;;;8.48;6.28;;;;;;;;;;5073770;28;20043;-75
2023/06/22 09:45:38;;;;;;;7.43;5.80;;;;;;;;;;5089819;28;20063;-74
2023/06/22 09:48:04;;;;;;;7.28;5.03;;;;;;;;;;5073987;28;20556;-73
2023/06/22 09:50:30;;;;;;;9.30;5.85;;;;;;;;;;5090340;28;20451;-72
2023/06/22 09:52:56;;;;;;;12.40;5.90;;;;;;;;;;5074165;28;20058;-73
2023/06/22 09:55:22;;;;;;;8.75;5.55;;;;;;;;;;5074234;28;20036;-73
2023/06/22 09:57:48;;;;;;;9.32;6.05;;;;;;;;;;5067351;28;20688;-73
2023/06/22 10:00:16;;;;;;;8.15;6.32;;;;;;;;;;5091672;28;20552;-73
2023/06/22 10:02:43;;;;;;;7.70;5.90;;;;;;;;;;5090538;28;20414;-74
2023/06/22 10:05:09;;;;;;;8.10;6.22;;;;;;;;;;5090605;28;20044;-73
2023/06/22 10:07:39;;;;;;;10.20;6.32;;;;;;;;;;5090694;28;20389;-73
2023/06/22 10:10:06;;;;;;;8.60;6.65;;;;;;;;;;5090806;28;20070;-73
2023/06/22 10:12:32;;;;;;;10.38;5.80;;;;;;;;;;5090343;28;20119;-75
2023/06/22 10:14:58;;;;;;;8.52;6.72;;;;;;;;;;5090503;28;20046;-74
2023/06/22 10:17:24;;;;;;;8.80;6.05;;;;;;;;;;5090837;28;20162;-72
2023/06/22 10:19:50;;;;;;;7.18;5.25;;;;;;;;;;5090466;28;20488;-73
2023/06/22 10:22:16;;;;;;;7.15;4.90;;;;;;;;;;5070801;28;20599;-73
2023/06/22 10:24:44;;;;;;;8.30;5.00;;;;;;;;;;5084832;28;20050;-74
2023/06/22 10:27:11;;;;;;;8.70;5.53;;;;;;;;;;5095504;28;20444;-74
2023/06/22 10:29:37;;;;;;;7.15;5.10;;;;;;;;;;5088781;28;20374;-74
2023/06/22 10:32:03;;;;;;;8.88;5.57;;;;;;;;;;5090330;28;20112;-74
2023/06/22 10:34:29;;;;;;;7.72;5.00;;;;;;;;;;5070619;28;20039;-76
2023/06/22 10:36:56;;;;;;;6.32;5.03;;;;;;;;;;5090051;28;20055;-73
2023/06/22 10:39:22;;;;;;;10.93;5.53;;;;;;;;;;5091887;28;20105;-75
2023/06/22 10:41:48;;;;;;;8.02;4.82;;;;;;;;;;5090945;28;20040;-72
2023/06/22 10:44:14;;;;;;;8.18;4.82;;;;;;;;;;5086688;28;20052;-72
2023/06/22 10:46:40;;;;;;;6.97;4.38;;;;;;;;;;5090197;28;20056;-75
2023/06/22 10:49:06;;;;;;;5.60;4.32;;;;;;;;;;5073095;28;20040;-73
2023/06/22 10:51:33;;;;;;;7.55;4.57;;;;;;;;;;5090270;28;20036;-74
2023/06/22 10:53:59;;;;;;;6.68;4.40;;;;;;;;;;5090474;28;20093;-74
2023/06/22 10:56:25;;;;;;;7.13;5.40;;;;;;;;;;5089788;28;20055;-75
2023/06/22 10:58:51;;;;;;;6.88;4.53;;;;;;;;;;5091200;28;20036;-73
2023/06/22 11:01:17;;;;;;;6.88;4.70;;;;;;;;;;5065836;28;20104;-73
2023/06/22 11:03:43;;;;;;;5.78;4.38;;;;;;;;;;5090536;28;20062;-72
2023/06/22 11:06:09;;;;;;;6.60;4.32;;;;;;;;;;5088666;28;20044;-73
2023/06/22 11:08:36;;;;;;;5.68;4.40;;;;;;;;;;5091169;28;20032;-73
2023/06/22 11:11:02;;;;;;;7.38;4.45;;;;;;;;;;5089919;28;20126;-73
2023/06/22 11:13:28;;;;;;;6.35;4.10;;;;;;;;;;5091106;28;20472;-73
2023/06/22 11:15:54;;;;;;;6.10;3.80;;;;;;;;;;5063871;28;20033;-75
2023/06/22 11:18:20;;;;;;;6.97;4.40;;;;;;;;;;5088599;28;20058;-75
2023/06/22 11:20:47;;;;;;;6.45;4.55;;;;;;;;;;5084434;28;20508;-74
2023/06/22 11:23:13;;;;;;;7.38;4.00;;;;;;;;;;5090573;28;20087;-75
2023/06/22 11:25:41;;;;;;;8.18;4.72;;;;;;;;;;5090645;28;20036;-74
2023/06/22 11:28:07;;;;;;;7.18;3.78;;;;;;;;;;5090206;28;20055;-76
2023/06/22 11:30:34;;;;;;;5.88;3.60;;;;;;;;;;5073526;28;20044;-75
2023/06/22 11:33:00;;;;;;;6.05;4.20;;;;;;;;;;5090303;28;20071;-74
2023/06/22 11:35:26;;;;;;;6.70;4.10;;;;;;;;;;5073566;28;20089;-74
2023/06/22 11:37:52;;;;;;;10.27;4.25;;;;;;;;;;5090353;28;20542;-76
2023/06/22 11:40:18;;;;;;;5.20;3.70;;;;;;;;;;5077603;28;20057;-75
2023/06/22 11:42:44;;;;;;;6.47;3.83;;;;;;;;;;5089247;28;20484;-74
2023/06/22 11:45:10;;;;;;;6.00;3.78;;;;;;;;;;5073313;28;20052;-75
2023/06/22 11:47:37;;;;;;;8.25;3.70;;;;;;;;;;5073597;28;20503;-74
2023/06/22 11:50:03;;;;;;;6.95;3.92;;;;;;;;;;5090085;28;20050;-75
2023/06/22 11:52:29;;;;;;;5.05;3.58;;;;;;;;;;5073382;28;20036;-75
2023/06/22 11:54:55;;;;;;;6.05;4.20;;;;;;;;;;5056825;28;20130;-75
2023/06/22 11:57:21;;;;;;;7.78;3.90;;;;;;;;;;5059534;28;20047;-75
2023/06/22 11:59:47;;;;;;;6.45;4.05;;;;;;;;;;5094028;28;20503;-74
2023/06/22 12:02:14;;;;;;;6.80;4.25;;;;;;;;;;5093620;28;20056;-75
2023/06/22 12:04:40;;;;;;;7.50;4.22;;;;;;;;;;5094098;28;20087;-75
2023/06/22 12:07:06;;;;;;;5.43;3.60;;;;;;;;;;5093465;28;20073;-75
2023/06/22 12:09:32;;;;;;;8.60;4.00;;;;;;;;;;5094886;28;20085;-75
2023/06/22 12:11:58;;;;;;;6.75;3.97;;;;;;;;;;5094837;28;20031;-76
2023/06/22 12:14:24;;;;;;;7.05;4.45;;;;;;;;;;5094206;28;20489;-76
2023/06/22 12:16:51;;;;;;;6.57;3.88;;;;;;;;;;5093763;28;20400;-75
2023/06/22 12:19:17;;;;;;;7.50;4.28;;;;;;;;;;5093374;28;20052;-75
2023/06/22 12:21:45;;;;;;;6.65;4.13;;;;;;;;;;5076492;28;20044;-75
2023/06/22 12:24:11;;;;;;;5.80;3.60;;;;;;;;;;5093194;28;20054;-75
2023/06/22 12:26:37;;;;;;;6.63;4.45;;;;;;;;;;5093499;28;20040;-75
2023/06/22 12:29:03;;;;;;;6.22;4.20;;;;;;;;;;5093111;28;20070;-74
2023/06/22 12:31:29;;;;;;;6.63;3.92;;;;;;;;;;5094504;28;20036;-75
2023/06/22 12:33:55;;;;;;;6.10;3.83;;;;;;;;;;5093606;28;20562;-74
2023/06/22 12:36:22;;;;;;;7.50;4.55;;;;;;;;;;5093172;28;20556;-75
2023/06/22 12:38:48;;;;;;;9.43;4.47;;;;;;;;;;5076322;28;20434;-75
2023/06/22 12:41:14;;;;;;;6.20;4.30;;;;;;;;;;5076478;28;20422;-76
2023/06/22 12:43:41;;;;;;;6.95;3.92;;;;;;;;;;5093384;28;20404;-74
2023/06/22 12:46:07;;;;;;;6.45;4.00;;;;;;;;;;5075596;28;20044;-75
2023/06/22 12:48:33;;;;;;;6.88;3.53;;;;;;;;;;5093119;28;20065;-76
2023/06/22 12:50:59;;;;;;;7.35;3.72;;;;;;;;;;5093065;28;20067;-75
2023/06/22 12:53:27;;;;;;;5.63;4.38;;;;;;;;;;5093195;28;20144;-76
2023/06/22 12:55:53;;;;;;;10.48;4.15;;;;;;;;;;5092979;28;20036;-74
2023/06/22 12:58:19;;;;;;;9.43;4.50;;;;;;;;;;5093666;28;20032;-75
2023/06/22 13:00:45;;;;;;;8.00;4.32;;;;;;;;;;5093226;28;20047;-74
2023/06/22 13:03:11;;;;;;;9.82;4.22;;;;;;;;;;5087209;28;20516;-75
2023/06/22 13:05:38;;;;;;;5.22;4.05;;;;;;;;;;5067065;28;20119;-75
2023/06/22 13:08:04;;;;;;;7.60;3.70;;;;;;;;;;5091500;28;20048;-74
2023/06/22 13:10:30;;;;;;;6.70;4.13;;;;;;;;;;5092547;28;20044;-75
2023/06/22 13:13:00;;;;;;;5.28;3.90;;;;;;;;;;5092682;28;20127;-75
2023/06/22 13:15:27;;;;;;;5.80;4.20;;;;;;;;;;5093490;28;20071;-75
2023/06/22 13:17:53;;;;;;;6.75;3.92;;;;;;;;;;5092733;28;20040;-75
2023/06/22 13:20:19;;;;;;;5.60;3.95;;;;;;;;;;5077887;28;20118;-75
2023/06/22 13:22:45;;;;;;;5.82;4.10;;;;;;;;;;5092673;28;20520;-74
2023/06/22 13:25:12;;;;;;;7.40;4.15;;;;;;;;;;5092057;28;20040;-74
2023/06/22 13:27:42;;;;;;;6.32;4.22;;;;;;;;;;5092116;28;20040;-74
2023/06/22 13:30:09;;;;;;;8.65;4.18;;;;;;;;;;5091862;28;20040;-74
2023/06/22 13:32:35;;;;;;;8.30;4.13;;;;;;;;;;5092123;28;20043;-74
2023/06/22 13:35:01;;;;;;;5.50;4.13;;;;;;;;;;5092232;28;20032;-75
2023/06/22 13:37:27;;;;;;;6.75;4.22;;;;;;;;;;5091539;28;20035;-74
2023/06/22 13:39:55;;;;;;;7.50;4.30;;;;;;;;;;5092418;28;20504;-75
2023/06/22 13:42:21;;;;;;;6.78;4.45;;;;;;;;;;5091538;28;20039;-74
2023/06/22 13:44:48;;;;;;;9.13;4.82;;;;;;;;;;5092213;28;20035;-75
2023/06/22 13:47:14;;;;;;;6.32;4.70;;;;;;;;;;5091478;28;20526;-75
2023/06/22 13:49:40;;;;;;;8.20;5.43;;;;;;;;;;5091681;28;20039;-75
2023/06/22 13:52:10;;;;;;;6.53;5.70;;;;;;;;;;5092164;28;20415;-75
2023/06/22 13:54:36;;;;;;;9.93;5.97;;;;;;;;;;5091728;28;20032;-75
2023/06/22 13:57:02;;;;;;;7.47;5.57;;;;;;;;;;5092122;28;20048;-75
2023/06/22 13:59:28;;;;;;;7.60;5.35;;;;;;;;;;5091489;28;20468;-75
2023/06/22 14:01:55;;;;;;;8.52;6.00;;;;;;;;;;5074712;28;20382;-76
2023/06/22 14:04:22;;;;;;;7.13;5.57;;;;;;;;;;5091241;28;20132;-75
2023/06/22 14:06:48;;;;;;;8.90;5.82;;;;;;;;;;5091788;28;20497;-75
2023/06/22 14:09:14;;;;;;;8.95;6.57;;;;;;;;;;5091522;28;20370;-75
2023/06/22 14:11:40;;;;;;;7.93;5.72;;;;;;;;;;5091319;28;20047;-74
2023/06/22 14:14:06;;;;;;;10.55;6.07;;;;;;;;;;5091482;28;20044;-74
2023/06/22 14:16:32;;;;;;;8.20;5.93;;;;;;;;;;5091008;28;20480;-74
2023/06/22 14:18:58;;;;;;;7.53;5.50;;;;;;;;;;5057706;28;20044;-74
2023/06/22 14:21:25;;;;;;;10.85;6.55;;;;;;;;;;5090194;28;20093;-74
2023/06/22 14:23:51;;;;;;;11.05;7.40;;;;;;;;;;5091496;28;20071;-75
2023/06/22 14:26:17;;;;;;;13.57;8.23;;;;;;;;;;5090909;28;20119;-74